KDEN/DEN METAR and TAF weather

Enter ICAO airport designator
Station Type Date Time Source
KDEN METAR 2019/08/22 08:53 UTC NOAA

KDEN 220853Z 30003KT 10SM FEW120 FEW220 17/11 A3013 RMK AO2 SLP124 T01720111 55008


Station Type Date Time Source
KDEN Decoded METAR 2019/08/22 08:53 UTC NOAA

Station name not available
Aug 22, 2019 - 04:53 AM EDT / 2019.08.22 0853 UTC
Wind: from the WNW (300 degrees) at 3 MPH (3 KT):0
Visibility: 10 mile(s):0
Sky conditions: mostly clear
Temperature: 63.0 F (17.2 C)
Dew Point: 52.0 F (11.1 C)
Relative Humidity: 67%
Pressure (altimeter): 30.13 in. Hg (1020 hPa)
Pressure tendency: 0.02 inches (0.8 hPa) lower than three hours ago
ob: KDEN 220853Z 30003KT 10SM FEW120 FEW220 17/11 A3013 RMK AO2 SLP124 T01720111 55008
cycle: 9

Station Type Date Time Source
KDEN TAF 2019/08/22 09:58 UTC NOAA

TAF
AMD KDEN 220856Z 2209/2312 31006KT P6SM FEW120 FEW220
FM221000 21010KT P6SM FEW120 SCT220
FM221400 VRB05KT P6SM FEW220
FM221700 16010KT P6SM SCT100
FM222000 10008KT P6SM SCT080 BKN200 PROB30 2222/2302 VRB20G35KT -TSRA BKN060CB
FM230300 20009KT P6SM SCT100 BKN220

Example: see airport list